CheckWX is a tool to help pilots better visualize weather data.  It is not intended as a substitute for an official pre-flight weather briefing.

12:21:04 UTC

KVBT METAR
Bentonville Municipal / Louise M Thaden Field Airport
Bentonville, Arkansas, USA
Current

25 mins ago

KVBT 071156Z AUTO 00000KT 10SM CLR 23/22 A3005 RMK AO2 SLP163 T02280217 10244 20222 53007 TSNO
Observed
Jul-7 @ 11:56 UTC
Visibility
10 SM
Flight Rules
VFR
Cloud Levels
  • Clear skies
Temperature
23°C / 73°F
Dewpoint
22°C / 72°F
Humidity
94%
Altimeter
30.05" Hg
Pressure
1017.62 hPa
Previous

1 hour ago

KVBT 071056Z AUTO 00000KT 10SM CLR 22/22 A3003 RMK AO2 SLP159 T02220217 TSNO
Observed
Jul-7 @ 10:56 UTC
Visibility
10 SM
Flight Rules
VFR
Cloud Levels
  • Clear skies
Temperature
22°C / 72°F
Dewpoint
22°C / 72°F
Humidity
100%
Altimeter
30.03" Hg
Pressure
1016.92 hPa
Previous

2 hours ago

KVBT 070956Z AUTO 14003KT 10SM CLR 23/22 A3003 RMK AO2 SLP158 T02280222 TSNO
Observed
Jul-7 @ 09:56 UTC
Wind
  • 140° at 3 KTS
Visibility
10 SM
Flight Rules
VFR
Cloud Levels
  • Clear skies
Temperature
23°C / 73°F
Dewpoint
22°C / 72°F
Humidity
94%
Altimeter
30.03" Hg
Pressure
1016.92 hPa